Time;durP1;ratioP1;P1;durP2;ratioP2;P2;SDS_P1;SDS_P2;PMS_P1;PMS_P2;Temp;Humidity;BMP_temperature;BMP_pressure;BME280_temperature;BME280_humidity;BME280_pressure;Samples;Min_cycle;Max_cycle;Signal;HPM_P1;HPM_P2
2024/04/23 00:00:22;;;;;;;;;;;;;;;20.82;27.84;101790.41;4572515;25;20286;-72
2024/04/23 00:02:24;;;;;;;;;;;;;;;20.83;28.26;101796.63;4572719;25;19935;-75
2024/04/23 00:04:25;;;;;;;;;;;;;;;20.83;28.04;101799.28;4572246;26;19939;-74
2024/04/23 00:06:27;;;;;;;;;;;;;;;20.81;28.21;101791.34;4572576;26;19939;-75
2024/04/23 00:08:29;;;;;;;;;;;;;;;20.82;27.90;101789.56;4571746;26;19935;-74
2024/04/23 00:10:31;;;;;;;;;;;;;;;20.85;28.19;101784.00;4572222;26;19957;-75
2024/04/23 00:12:33;;;;;;;;;;;;;;;20.83;27.77;101792.13;4572498;26;19931;-75
2024/04/23 00:14:34;;;;;;;;;;;;;;;20.84;28.20;101782.28;4572093;25;19935;-75
2024/04/23 00:16:36;;;;;;;;;;;;;;;20.81;28.00;101787.81;4572454;26;19931;-74
2024/04/23 00:18:38;;;;;;;;;;;;;;;20.79;27.88;101781.72;4570409;26;19939;-74
2024/04/23 00:20:40;;;;;;;;;;;;;;;20.79;27.79;101781.72;4571839;26;20259;-74
2024/04/23 00:22:44;;;;;;;;;;;;;;;20.77;27.84;101775.59;4571926;26;19942;-74
2024/04/23 00:24:46;;;;;;;;;;;;;;;20.81;27.82;101777.97;4572112;25;20376;-74
2024/04/23 00:26:55;;;;;;;;;;;;;;;20.82;28.02;101778.84;4572232;26;20377;-74
2024/04/23 00:28:56;;;;;;;;;;;;;;;20.80;28.53;101776.25;4572177;26;19937;-75
2024/04/23 00:30:58;;;;;;;;;;;;;;;20.82;28.31;101776.19;4572122;26;19935;-75
2024/04/23 00:33:00;;;;;;;;;;;;;;;20.82;27.86;101773.50;4572345;26;19931;-74
2024/04/23 00:35:02;;;;;;;;;;;;;;;20.81;27.81;101772.63;4572065;25;20299;-75
2024/04/23 00:37:04;;;;;;;;;;;;;;;20.80;27.78;101775.41;4571969;25;19938;-73
2024/04/23 00:39:06;;;;;;;;;;;;;;;20.79;27.91;101771.00;4572462;25;19939;-74
2024/04/23 00:41:08;;;;;;;;;;;;;;;20.77;28.04;101771.13;4572110;26;19935;-75
2024/04/23 00:43:10;;;;;;;;;;;;;;;20.76;28.52;101763.19;4572288;25;19931;-75
2024/04/23 00:45:13;;;;;;;;;;;;;;;20.76;28.27;101768.53;4571683;25;19931;-74
2024/04/23 00:47:15;;;;;;;;;;;;;;;20.75;27.82;101770.34;4572001;25;19936;-74
2024/04/23 00:49:17;;;;;;;;;;;;;;;20.75;28.45;101767.66;4572123;26;20050;-73
2024/04/23 00:51:19;;;;;;;;;;;;;;;20.76;28.11;101766.72;4571764;26;19935;-75
2024/04/23 00:53:21;;;;;;;;;;;;;;;20.77;27.75;101767.56;4571599;25;19935;-75
2024/04/23 00:55:24;;;;;;;;;;;;;;;20.77;27.80;101764.88;4569693;26;19939;-75
2024/04/23 00:57:26;;;;;;;;;;;;;;;20.77;27.78;101765.78;4571945;26;20254;-75
2024/04/23 00:59:28;;;;;;;;;;;;;;;20.77;28.56;101765.78;4572029;25;20003;-75
2024/04/23 01:01:35;;;;;;;;;;;;;;;20.77;28.64;101762.22;4571727;25;19931;-75
2024/04/23 01:03:37;;;;;;;;;;;;;;;20.76;28.47;101768.53;4571782;25;19938;-74
2024/04/23 01:05:39;;;;;;;;;;;;;;;20.76;28.02;101771.22;4571673;25;19939;-75
2024/04/23 01:07:41;;;;;;;;;;;;;;;20.74;27.92;101765.94;4571282;26;19939;-75
2024/04/23 01:09:43;;;;;;;;;;;;;;;20.72;28.02;101768.72;4571670;25;19942;-75
2024/04/23 01:11:48;;;;;;;;;;;;;;;20.69;28.57;101758.22;4571516;25;19942;-75
2024/04/23 01:13:50;;;;;;;;;;;;;;;20.73;28.52;101765.09;4571713;26;19932;-75
2024/04/23 01:15:52;;;;;;;;;;;;;;;20.74;28.08;101756.13;4571696;25;20279;-74
2024/04/23 01:17:58;;;;;;;;;;;;;;;20.74;28.23;101757.94;4571637;26;19943;-74
2024/04/23 01:20:02;;;;;;;;;;;;;;;20.74;27.96;101753.47;4571768;26;19939;-72
2024/04/23 01:22:18;;;;;;;;;;;;;;;20.76;27.78;101750.69;4570778;26;20361;-75
2024/04/23 01:24:21;;;;;;;;;;;;;;;20.75;28.33;101756.97;4571564;26;19927;-74
2024/04/23 01:26:23;;;;;;;;;;;;;;;20.74;28.13;101750.78;4571417;25;20361;-74
2024/04/23 01:28:25;;;;;;;;;;;;;;;20.72;27.72;101747.34;4549450;26;19958;-74
2024/04/23 01:30:29;;;;;;;;;;;;;;;20.72;28.10;101749.16;4571260;26;19938;-75
2024/04/23 01:32:34;;;;;;;;;;;;;;;20.68;28.28;101751.13;4570121;26;19935;-75
2024/04/23 01:34:36;;;;;;;;;;;;;;;20.67;27.97;101751.22;4569807;26;20004;-74
2024/04/23 01:36:38;;;;;;;;;;;;;;;20.67;28.08;101744.06;4570789;25;19938;-74
2024/04/23 01:38:41;;;;;;;;;;;;;;;20.71;28.38;101747.41;4569765;26;20332;-75
2024/04/23 01:40:46;;;;;;;;;;;;;;;20.71;27.85;101744.72;4571675;25;20046;-74
2024/04/23 01:42:48;;;;;;;;;;;;;;;20.72;28.27;101749.16;4571018;25;19931;-73
2024/04/23 01:44:52;;;;;;;;;;;;;;;20.72;28.47;101754.50;4571330;25;19942;-75
2024/04/23 01:46:54;;;;;;;;;;;;;;;20.71;28.13;101750.94;4571026;25;19935;-74
2024/04/23 01:48:56;;;;;;;;;;;;;;;20.69;27.94;101755.53;4571390;26;20373;-74
2024/04/23 01:50:58;;;;;;;;;;;;;;;20.69;27.91;101751.97;4570975;26;19927;-72
2024/04/23 01:53:00;;;;;;;;;;;;;;;20.68;28.49;101756.47;4570821;25;19932;-72
2024/04/23 01:55:02;;;;;;;;;;;;;;;20.69;27.91;101762.69;4571239;25;20395;-74
2024/04/23 01:57:05;;;;;;;;;;;;;;;20.68;28.07;101763.63;4569443;25;19961;-74
2024/04/23 01:59:07;;;;;;;;;;;;;;;20.66;28.64;101755.72;4570903;25;19942;-73
2024/04/23 02:01:10;;;;;;;;;;;;;;;20.67;28.14;101764.56;4571030;25;20004;-74
2024/04/23 02:03:14;;;;;;;;;;;;;;;20.65;28.00;101755.81;4569165;26;19943;-74
2024/04/23 02:05:17;;;;;;;;;;;;;;;20.66;28.10;101754.88;4570453;26;19934;-72
2024/04/23 02:07:19;;;;;;;;;;;;;;;20.69;27.87;101754.66;4569129;26;20302;-72
2024/04/23 02:09:21;;;;;;;;;;;;;;;20.71;27.87;101752.75;4564003;26;20205;-72
2024/04/23 02:11:23;;;;;;;;;;;;;;;20.68;28.23;101752.94;4570968;25;19927;-73
2024/04/23 02:13:26;;;;;;;;;;;;;;;20.68;27.73;101747.59;4570381;26;19931;-73
2024/04/23 02:15:31;;;;;;;;;;;;;;;20.68;27.62;101740.44;4570981;25;19934;-73
2024/04/23 02:17:33;;;;;;;;;;;;;;;20.68;27.72;101742.25;4570778;26;19954;-74
2024/04/23 02:19:38;;;;;;;;;;;;;;;20.65;28.49;101740.63;4570274;25;19942;-73
2024/04/23 02:21:40;;;;;;;;;;;;;;;20.64;28.00;101738.06;4570936;25;19931;-73
2024/04/23 02:23:42;;;;;;;;;;;;;;;20.63;27.99;101742.50;4579381;25;19938;-72
2024/04/23 02:25:44;;;;;;;;;;;;;;;20.63;28.02;101736.31;4570734;26;19935;-73
2024/04/23 02:27:46;;;;;;;;;;;;;;;20.61;28.19;101735.56;4570540;26;20328;-72
2024/04/23 02:29:48;;;;;;;;;;;;;;;20.61;28.14;101741.78;4570254;25;19931;-72
2024/04/23 02:31:50;;;;;;;;;;;;;;;20.62;28.22;101729.25;4539057;26;19932;-73
2024/04/23 02:36:15;;;;;;;;;;;;;;;20.65;27.98;101726.41;5125445;22;20442;-61
2024/04/23 02:38:17;;;;;;;;;;;;;;;20.66;28.24;101725.47;4365954;22;19937;-62
2024/04/23 02:40:19;;;;;;;;;;;;;;;20.64;28.15;101719.34;4280438;27;19947;-61
2024/04/23 02:42:21;;;;;;;;;;;;;;;20.63;28.17;101722.97;4288941;27;20367;-61
2024/04/23 02:44:23;;;;;;;;;;;;;;;20.62;28.32;101721.25;4292531;27;19940;-60
2024/04/23 02:46:25;;;;;;;;;;;;;;;20.61;28.25;101722.19;4298683;27;19941;-60
2024/04/23 02:48:27;;;;;;;;;;;;;;;20.58;28.44;101723.25;4285942;27;20310;-61
2024/04/23 02:50:28;;;;;;;;;;;;;;;20.58;28.32;101715.22;4305613;27;19943;-62
2024/04/23 02:52:30;;;;;;;;;;;;;;;20.58;28.07;101713.44;4286383;27;20416;-61
2024/04/23 02:54:32;;;;;;;;;;;;;;;20.60;27.83;101710.66;4290406;27;19936;-61
2024/04/23 02:56:33;;;;;;;;;;;;;;;20.59;28.33;101712.44;4300736;27;19948;-61
2024/04/23 02:58:35;;;;;;;;;;;;;;;20.61;27.79;101714.16;4286013;27;19951;-60
2024/04/23 03:00:37;;;;;;;;;;;;;;;20.62;28.22;101716.78;4302762;27;20143;-60
2024/04/23 03:02:39;;;;;;;;;;;;;;;20.60;28.21;101713.31;4288832;27;20306;-61
2024/04/23 03:04:42;;;;;;;;;;;;;;;20.60;28.38;101713.31;4287884;27;19941;-60
2024/04/23 03:06:44;;;;;;;;;;;;;;;20.59;28.47;101715.13;4277680;27;19940;-61
2024/04/23 03:08:46;;;;;;;;;;;;;;;20.60;28.01;101713.31;4312844;27;20038;-60
2024/04/23 03:10:47;;;;;;;;;;;;;;;20.57;28.04;101716.19;4297350;27;20281;-60
2024/04/23 03:12:49;;;;;;;;;;;;;;;20.57;28.48;101710.81;4307787;27;19936;-60
2024/04/23 03:14:51;;;;;;;;;;;;;;;20.54;28.04;101703.03;4287574;27;20322;-61
2024/04/23 03:16:53;;;;;;;;;;;;;;;20.53;27.93;101699.47;4303943;27;19940;-61
2024/04/23 03:18:55;;;;;;;;;;;;;;;20.53;27.81;101696.78;4285673;27;20296;-61
2024/04/23 03:20:56;;;;;;;;;;;;;;;20.55;27.67;101694.91;4297727;27;19943;-60
2024/04/23 03:22:58;;;;;;;;;;;;;;;20.57;28.01;101695.66;4293612;27;19944;-61
2024/04/23 03:25:01;;;;;;;;;;;;;;;20.56;28.13;101693.06;4287442;27;20016;-60
2024/04/23 03:27:02;;;;;;;;;;;;;;;20.57;28.30;101695.66;4303910;27;19944;-61
2024/04/23 03:29:04;;;;;;;;;;;;;;;20.57;27.87;101690.31;4285683;27;19945;-60
2024/04/23 03:31:06;;;;;;;;;;;;;;;20.59;28.08;101693.75;4295020;27;19943;-61
2024/04/23 03:33:08;;;;;;;;;;;;;;;20.56;27.68;101687.72;4296284;27;19944;-61
2024/04/23 03:35:10;;;;;;;;;;;;;;;20.54;28.10;101687.84;4286222;27;20012;-61
2024/04/23 03:37:12;;;;;;;;;;;;;;;20.53;28.27;101688.78;4304846;27;19947;-60
2024/04/23 03:39:13;;;;;;;;;;;;;;;20.50;28.47;101686.31;4285061;27;19936;-61
2024/04/23 03:41:15;;;;;;;;;;;;;;;20.50;28.04;101693.47;4292107;27;19932;-60
2024/04/23 03:43:17;;;;;;;;;;;;;;;20.51;27.74;101689.84;4298429;27;19933;-61
2024/04/23 03:45:19;;;;;;;;;;;;;;;20.53;27.89;101690.59;4285752;27;19940;-61
2024/04/23 03:47:21;;;;;;;;;;;;;;;20.53;28.65;101685.25;4304624;27;19940;-61
2024/04/23 03:49:23;;;;;;;;;;;;;;;20.55;28.49;101688.72;4285741;27;19948;-61
2024/04/23 03:51:24;;;;;;;;;;;;;;;20.53;28.16;101688.78;4289702;27;19993;-60
2024/04/23 03:53:26;;;;;;;;;;;;;;;20.53;27.89;101685.25;4300516;27;19939;-60
2024/04/23 03:55:28;;;;;;;;;;;;;;;20.52;28.34;101680.88;4284652;27;19940;-61
2024/04/23 03:57:30;;;;;;;;;;;;;;;20.53;28.54;101690.59;4301995;27;19940;-61
2024/04/23 03:59:32;;;;;;;;;;;;;;;20.53;27.67;101685.25;4288347;27;19936;-60
2024/04/23 04:01:34;;;;;;;;;;;;;;;20.51;28.36;101695.19;4258633;27;19933;-60
2024/04/23 04:06:06;;;;;;;;;;;;;;;20.46;28.02;101686.59;4312371;27;20228;-60
2024/04/23 04:08:08;;;;;;;;;;;;;;;20.49;28.19;101691.75;4304673;27;20301;-61
2024/04/23 04:10:10;;;;;;;;;;;;;;;20.48;28.14;101693.56;4285054;27;19940;-61
2024/04/23 04:12:12;;;;;;;;;;;;;;;20.51;27.79;101689.84;4290732;27;19940;-60
2024/04/23 04:14:13;;;;;;;;;;;;;;;20.50;28.49;101686.31;4299204;27;19940;-60
2024/04/23 04:16:15;;;;;;;;;;;;;;;20.50;28.09;101689.00;4285105;27;19947;-60
2024/04/23 04:18:19;;;;;;;;;;;;;;;20.52;27.86;101691.56;4302927;27;20296;-60
2024/04/23 04:20:21;;;;;;;;;;;;;;;20.50;27.68;101704.16;4286227;27;19944;-59
2024/04/23 04:22:23;;;;;;;;;;;;;;;20.48;28.33;101704.25;4288124;27;19936;-60
2024/04/23 04:24:27;;;;;;;;;;;;;;;20.48;27.66;101706.91;4301280;27;19940;-60
2024/04/23 04:26:28;;;;;;;;;;;;;;;20.48;28.02;101703.41;4284722;27;19936;-60
2024/04/23 04:28:30;;;;;;;;;;;;;;;20.48;27.93;101706.06;4301349;27;19941;-60
2024/04/23 04:30:32;;;;;;;;;;;;;;;20.44;27.77;101713.41;4288348;27;19937;-61
2024/04/23 04:32:34;;;;;;;;;;;;;;;20.42;28.14;101707.31;4305280;27;19932;-61
2024/04/23 04:34:35;;;;;;;;;;;;;;;20.43;27.96;101704.53;4265345;27;20025;-61
2024/04/23 04:36:37;;;;;;;;;;;;;;;20.46;28.04;101702.63;4311851;27;19944;-61
2024/04/23 04:38:39;;;;;;;;;;;;;;;20.48;28.37;101704.25;4297635;27;20385;-60
2024/04/23 04:40:41;;;;;;;;;;;;;;;20.48;27.99;101708.75;4301904;27;20543;-62
2024/04/23 04:42:43;;;;;;;;;;;;;;;20.48;28.41;101706.06;4287178;27;19933;-60
2024/04/23 04:44:44;;;;;;;;;;;;;;;20.47;27.71;101702.53;4303247;27;19947;-60
2024/04/23 04:46:46;;;;;;;;;;;;;;;20.46;27.94;101711.50;4284581;27;19951;-60
2024/04/23 04:48:48;;;;;;;;;;;;;;;20.45;28.47;101708.91;4296016;27;20011;-60
2024/04/23 04:50:50;;;;;;;;;;;;;;;20.44;28.21;101705.41;4293584;27;19948;-60
2024/04/23 04:52:52;;;;;;;;;;;;;;;20.42;28.00;101699.28;4286593;27;19941;-61
2024/04/23 04:54:54;;;;;;;;;;;;;;;20.41;27.97;101716.28;4302921;27;19944;-61
2024/04/23 04:56:55;;;;;;;;;;;;;;;20.40;28.40;101709.19;4284664;27;20410;-61
2024/04/23 04:58:57;;;;;;;;;;;;;;;20.41;28.24;101711.81;4293169;27;20275;-61
2024/04/23 05:01:01;;;;;;;;;;;;;;;20.40;28.17;101704.72;4295846;27;20390;-61
2024/04/23 05:03:02;;;;;;;;;;;;;;;20.41;28.51;101713.59;4284855;27;20285;-61
2024/04/23 05:05:04;;;;;;;;;;;;;;;20.43;27.87;101719.72;4289695;27;19932;-60
2024/04/23 05:07:06;;;;;;;;;;;;;;;20.42;28.35;101718.84;4309909;27;20046;-61
2024/04/23 05:09:08;;;;;;;;;;;;;;;20.44;27.96;101721.44;4304716;27;20659;-61
2024/04/23 05:11:10;;;;;;;;;;;;;;;20.43;28.33;101715.22;4298085;27;19936;-61
2024/04/23 05:13:12;;;;;;;;;;;;;;;20.41;28.45;101722.50;4311674;27;19947;-61
2024/04/23 05:15:14;;;;;;;;;;;;;;;20.39;28.04;101716.38;4292108;27;19952;-61
2024/04/23 05:17:16;;;;;;;;;;;;;;;20.39;28.55;101723.50;4310637;27;19932;-61
2024/04/23 05:19:18;;;;;;;;;;;;;;;20.36;28.41;101721.88;4307263;27;19933;-61
2024/04/23 05:21:20;;;;;;;;;;;;;;;20.37;28.39;101728.97;4295077;27;19933;-61
2024/04/23 05:23:21;;;;;;;;;;;;;;;20.38;27.92;101727.16;4311530;27;20432;-62
2024/04/23 05:25:23;;;;;;;;;;;;;;;20.37;28.20;101734.28;4294706;27;19936;-61
2024/04/23 05:27:27;;;;;;;;;;;;;;;20.38;28.28;101730.69;4308164;27;19952;-61
2024/04/23 05:29:30;;;;;;;;;;;;;;;20.39;28.38;101731.53;4309049;27;19932;-62
2024/04/23 05:33:52;;;;;;;;;;;;;;;20.41;27.70;101737.66;4311497;27;19944;-62
2024/04/23 05:35:54;;;;;;;;;;;;;;;20.40;28.36;101743.94;4291758;27;20008;-61
2024/04/23 05:37:55;;;;;;;;;;;;;;;20.37;28.10;101742.31;4310056;27;20357;-61
2024/04/23 05:39:57;;;;;;;;;;;;;;;20.37;28.45;101744.13;4307417;27;19951;-61
2024/04/23 05:41:59;;;;;;;;;;;;;;;20.34;27.83;101750.53;4294546;27;19941;-59
2024/04/23 05:44:01;;;;;;;;;;;;;;;20.34;28.38;101750.53;4282684;27;20288;-62
2024/04/23 05:46:03;;;;;;;;;;;;;;;20.33;27.75;101762.16;4294606;27;19933;-60
2024/04/23 05:48:24;;;;;;;;;;;;;;;20.34;28.27;101758.53;4307179;27;20011;-61
2024/04/23 05:50:45;;;;;;;;;;;;;;;20.35;28.33;101762.94;4304680;27;20391;-61
2024/04/23 05:53:05;;;;;;;;;;;;;;;20.34;28.08;101746.97;4300478;27;19947;-62
2024/04/23 05:55:26;;;;;;;;;;;;;;;20.37;28.28;101752.16;4308312;27;19937;-61
2024/04/23 05:57:28;;;;;;;;;;;;;;;20.36;27.83;101758.44;4276884;27;19943;-62
2024/04/23 05:59:30;;;;;;;;;;;;;;;20.37;28.46;101757.50;4310898;27;19936;-62
2024/04/23 06:01:31;;;;;;;;;;;;;;;20.36;27.72;101761.97;4294948;27;19952;-61
2024/04/23 06:03:33;;;;;;;;;;;;;;;20.34;28.17;101752.31;4306551;27;19936;-62
2024/04/23 06:05:35;;;;;;;;;;;;;;;20.34;27.99;101755.00;4308003;27;19941;-62
2024/04/23 06:07:37;;;;;;;;;;;;;;;20.33;28.35;101758.63;4292447;27;19940;-61
2024/04/23 06:09:42;;;;;;;;;;;;;;;20.33;27.96;101759.50;4311296;27;20314;-60
2024/04/23 06:11:44;;;;;;;;;;;;;;;20.32;28.51;101754.25;4296661;27;19952;-60
2024/04/23 06:13:49;;;;;;;;;;;;;;;20.31;28.39;101763.22;4304582;27;19947;-60
2024/04/23 06:15:51;;;;;;;;;;;;;;;20.33;27.92;101764.84;4308585;27;20016;-60
2024/04/23 06:17:52;;;;;;;;;;;;;;;20.32;27.96;101763.13;4293455;27;19940;-60
2024/04/23 06:19:55;;;;;;;;;;;;;;;20.33;27.97;101770.19;4313031;27;19940;-60
2024/04/23 06:21:59;;;;;;;;;;;;;;;20.33;28.17;101771.97;4301028;27;19933;-60
2024/04/23 06:24:01;;;;;;;;;;;;;;;20.32;28.08;101771.13;4305707;27;19944;-59
2024/04/23 06:26:04;;;;;;;;;;;;;;;20.32;27.80;101770.28;4310857;27;20305;-60
2024/04/23 06:28:06;;;;;;;;;;;;;;;20.32;28.41;101772.97;4294774;27;19947;-59
2024/04/23 06:30:14;;;;;;;;;;;;;;;20.31;27.93;101771.22;4313409;27;20043;-59
2024/04/23 06:32:16;;;;;;;;;;;;;;;20.30;27.79;101770.34;4305995;27;19940;-60
2024/04/23 06:34:18;;;;;;;;;;;;;;;20.30;28.49;101767.69;4294246;27;19933;-59
2024/04/23 06:36:20;;;;;;;;;;;;;;;20.31;27.67;101768.56;4288607;27;19940;-59
2024/04/23 06:38:22;;;;;;;;;;;;;;;20.31;28.61;101760.53;4304307;27;19932;-60
2024/04/23 06:40:24;;;;;;;;;;;;;;;20.35;27.86;101764.72;4286394;27;19947;-60
2024/04/23 06:42:25;;;;;;;;;;;;;;;20.34;28.48;101765.69;4266199;27;20294;-59
2024/04/23 06:44:27;;;;;;;;;;;;;;;20.34;28.17;101766.56;4297243;27;19947;-60
2024/04/23 06:46:29;;;;;;;;;;;;;;;20.34;28.00;101771.03;4286148;27;19947;-60
2024/04/23 06:48:31;;;;;;;;;;;;;;;20.32;28.54;101767.59;4290971;27;20285;-60
2024/04/23 06:50:33;;;;;;;;;;;;;;;20.32;28.26;101763.13;4313434;27;20012;-59
2024/04/23 06:52:35;;;;;;;;;;;;;;;20.31;27.91;101766.72;4306118;27;19940;-62
2024/04/23 06:54:36;;;;;;;;;;;;;;;20.32;28.07;101770.28;4299460;27;19936;-59
2024/04/23 06:56:38;;;;;;;;;;;;;;;20.29;28.12;101765.97;4313264;27;19948;-60
2024/04/23 06:58:40;;;;;;;;;;;;;;;20.30;28.25;101770.34;4293670;27;19944;-58
2024/04/23 07:00:42;;;;;;;;;;;;;;;20.29;28.31;101768.63;4311886;27;19947;-59
2024/04/23 07:02:43;;;;;;;;;;;;;;;20.32;27.90;101767.59;4308566;27;19948;-62
2024/04/23 07:04:45;;;;;;;;;;;;;;;20.30;27.79;101767.69;4296836;27;20011;-62
2024/04/23 07:06:47;;;;;;;;;;;;;;;20.30;27.50;101767.69;4313063;27;19932;-59
2024/04/23 07:08:49;;;;;;;;;;;;;;;20.31;28.14;101779.25;4296251;27;19939;-59
2024/04/23 07:10:55;;;;;;;;;;;;;;;20.30;27.81;101778.38;4310107;27;19936;-59
2024/04/23 07:12:57;;;;;;;;;;;;;;;20.30;28.07;101774.84;4310397;27;19948;-59
2024/04/23 07:15:00;;;;;;;;;;;;;;;20.29;27.78;101771.28;4295117;27;19947;-60
2024/04/23 07:17:02;;;;;;;;;;;;;;;20.27;27.98;101775.91;4312708;27;19935;-59
2024/04/23 07:19:04;;;;;;;;;;;;;;;20.25;28.39;101773.28;4297495;27;20299;-59
2024/04/23 07:21:06;;;;;;;;;;;;;;;20.26;28.08;101769.66;4307846;27;19943;-60
2024/04/23 07:23:08;;;;;;;;;;;;;;;20.26;28.46;101767.00;4310290;27;20390;-61
2024/04/23 07:25:11;;;;;;;;;;;;;;;20.33;27.71;101771.97;4294349;27;19947;-60
2024/04/23 07:27:13;;;;;;;;;;;;;;;20.32;28.21;101767.59;4312889;27;19944;-62
2024/04/23 07:29:15;;;;;;;;;;;;;;;20.34;27.96;101761.22;4269701;27;19947;-60
2024/04/23 07:31:17;;;;;;;;;;;;;;;20.36;27.95;101761.13;4305197;27;19940;-62
2024/04/23 07:33:19;;;;;;;;;;;;;;;20.36;27.79;101763.78;4310220;27;19947;-62
2024/04/23 07:35:24;;;;;;;;;;;;;;;20.37;27.65;101762.84;4294283;27;20373;-61
2024/04/23 07:37:27;;;;;;;;;;;;;;;20.36;28.04;101764.63;4312480;27;20007;-61
2024/04/23 07:39:29;;;;;;;;;;;;;;;20.39;27.85;101764.47;4272158;27;20656;-61
2024/04/23 07:41:31;;;;;;;;;;;;;;;20.40;27.84;101766.19;4288583;27;19948;-62
2024/04/23 07:43:33;;;;;;;;;;;;;;;20.42;28.42;101763.41;4287467;27;19944;-62
2024/04/23 07:45:36;;;;;;;;;;;;;;;20.41;28.37;101767.91;4303344;27;19947;-59
2024/04/23 07:47:38;;;;;;;;;;;;;;;20.43;27.99;101767.81;4285470;27;19944;-62
2024/04/23 07:49:41;;;;;;;;;;;;;;;20.42;28.39;101766.94;4294368;27;20260;-62
2024/04/23 07:51:43;;;;;;;;;;;;;;;20.42;28.14;101769.59;4296196;27;19937;-61
2024/04/23 07:53:45;;;;;;;;;;;;;;;20.45;27.67;101762.38;4285712;27;19937;-62
2024/04/23 07:55:47;;;;;;;;;;;;;;;20.47;27.57;101760.47;4304668;27;19943;-61
2024/04/23 07:57:51;;;;;;;;;;;;;;;20.48;28.18;101760.38;4285171;27;20016;-61
2024/04/23 07:59:53;;;;;;;;;;;;;;;20.49;27.86;101767.44;4291819;27;20444;-62
2024/04/23 08:01:55;;;;;;;;;;;;;;;20.50;27.56;101771.84;4297782;27;19993;-62
2024/04/23 08:03:57;;;;;;;;;;;;;;;20.51;27.58;101768.22;4285059;27;19940;-61
2024/04/23 08:06:02;;;;;;;;;;;;;;;20.49;28.30;101774.59;4276598;27;20485;-61
2024/04/23 08:08:04;;;;;;;;;;;;;;;20.47;28.31;101771.16;4258324;27;19957;-62
2024/04/23 08:10:06;;;;;;;;;;;;;;;20.48;27.57;101764.88;4276557;27;19943;-62
2024/04/23 08:12:08;;;;;;;;;;;;;;;20.46;27.61;101766.75;4299614;27;19936;-61
2024/04/23 08:14:11;;;;;;;;;;;;;;;20.48;27.70;101768.38;4284824;27;20310;-62
2024/04/23 08:16:13;;;;;;;;;;;;;;;20.47;28.18;101782.69;4303326;27;19936;-62
2024/04/23 08:18:15;;;;;;;;;;;;;;;20.46;27.99;101767.59;4286468;27;19940;-62
2024/04/23 08:20:17;;;;;;;;;;;;;;;20.46;27.92;101770.28;4288256;27;20008;-62
2024/04/23 08:22:19;;;;;;;;;;;;;;;20.48;27.88;101772.88;4301309;27;20299;-62
2024/04/23 08:24:22;;;;;;;;;;;;;;;20.47;27.64;101768.47;4285225;27;19936;-62
2024/04/23 08:26:24;;;;;;;;;;;;;;;20.45;27.56;101767.72;4300887;27;19936;-62
2024/04/23 08:28:26;;;;;;;;;;;;;;;20.46;27.56;101769.44;4288881;27;20351;-61
2024/04/23 08:30:28;;;;;;;;;;;;;;;20.46;27.43;101767.59;4286519;27;20064;-61
2024/04/23 08:32:30;;;;;;;;;;;;;;;20.45;27.40;101768.59;4303050;27;19944;-62
2024/04/23 08:34:32;;;;;;;;;;;;;;;20.46;26.88;101764.94;4285053;27;19949;-62
2024/04/23 08:36:34;;;;;;;;;;;;;;;20.48;27.07;101767.53;4298492;27;19932;-62
2024/04/23 08:38:36;;;;;;;;;;;;;;;20.48;26.95;101762.19;4290863;27;20370;-62
2024/04/23 08:40:39;;;;;;;;;;;;;;;20.49;26.84;101767.44;4286100;27;20007;-61
2024/04/23 08:42:43;;;;;;;;;;;;;;;20.48;26.87;101771.06;4303070;27;20161;-61
2024/04/23 08:44:51;;;;;;;;;;;;;;;20.48;27.21;101768.38;4284699;27;20385;-60
2024/04/23 08:46:53;;;;;;;;;;;;;;;20.51;27.10;101765.53;4298075;27;19940;-61
2024/04/23 08:48:56;;;;;;;;;;;;;;;20.50;27.30;101765.59;4291364;27;20256;-61
2024/04/23 08:50:59;;;;;;;;;;;;;;;20.49;27.50;101763.91;4286992;27;19943;-60
2024/04/23 08:53:02;;;;;;;;;;;;;;;20.49;27.19;101751.41;4303022;27;19936;-61
2024/04/23 08:55:05;;;;;;;;;;;;;;;20.52;27.20;101766.38;4284740;27;20441;-61
2024/04/23 08:57:11;;;;;;;;;;;;;;;20.51;26.69;101764.66;4296672;27;20378;-62
2024/04/23 08:59:14;;;;;;;;;;;;;;;20.47;26.86;101761.31;4291366;27;19933;-61
2024/04/23 09:01:43;;;;;;;;;;;;;;;20.49;26.80;101761.25;4286649;27;20008;-61
2024/04/23 09:03:47;;;;;;;;;;;;;;;20.47;26.28;101747.94;4275177;27;20374;-60
2024/04/23 09:05:49;;;;;;;;;;;;;;;20.48;26.25;101748.84;4311803;27;19935;-62
2024/04/23 09:07:52;;;;;;;;;;;;;;;20.46;26.75;101756.91;4293951;27;20012;-61
2024/04/23 09:09:54;;;;;;;;;;;;;;;20.44;26.48;101748.16;4309033;27;20484;-61
2024/04/23 09:11:57;;;;;;;;;;;;;;;20.45;26.00;101747.22;4308709;27;19936;-61
2024/04/23 09:14:00;;;;;;;;;;;;;;;20.43;26.17;101749.94;4265345;27;19944;-60
2024/04/23 09:16:03;;;;;;;;;;;;;;;20.45;26.50;101738.31;4311597;27;20378;-61
2024/04/23 09:18:07;;;;;;;;;;;;;;;20.49;26.29;101748.72;4295492;27;20297;-61
2024/04/23 09:20:12;;;;;;;;;;;;;;;20.48;26.68;101748.84;4307478;27;19933;-61
2024/04/23 09:22:14;;;;;;;;;;;;;;;20.43;26.01;101733.91;4308898;27;20428;-61
2024/04/23 09:24:23;;;;;;;;;;;;;;;20.42;26.28;101734.03;4275095;27;19940;-62
2024/04/23 09:26:25;;;;;;;;;;;;;;;20.42;26.37;101728.69;4311437;27;20003;-61
2024/04/23 09:28:31;;;;;;;;;;;;;;;20.43;26.48;101733.91;4294541;27;19941;-60
2024/04/23 09:30:36;;;;;;;;;;;;;;;20.43;26.05;101728.56;4308376;27;19947;-61
2024/04/23 09:32:39;;;;;;;;;;;;;;;20.50;26.05;101734.41;4289978;27;19936;-60
2024/04/23 09:34:51;;;;;;;;;;;;;;;20.45;25.91;101728.50;4301484;27;19936;-60
2024/04/23 09:36:54;;;;;;;;;;;;;;;20.47;25.51;101733.75;4284194;27;19937;-61
2024/04/23 09:38:58;;;;;;;;;;;;;;;20.46;26.32;101732.88;4301810;27;19932;-61
2024/04/23 09:41:04;;;;;;;;;;;;;;;20.44;26.20;101732.13;4285629;27;19939;-61
2024/04/23 09:43:06;;;;;;;;;;;;;;;20.43;25.81;101730.41;4287647;27;20287;-61
2024/04/23 09:45:11;;;;;;;;;;;;;;;20.43;25.80;101731.25;4300058;27;19936;-61
2024/04/23 09:47:13;;;;;;;;;;;;;;;20.43;25.84;101722.38;4284160;27;19949;-61
2024/04/23 09:49:19;;;;;;;;;;;;;;;20.45;25.45;101716.94;4301427;27;19947;-61
2024/04/23 09:51:27;;;;;;;;;;;;;;;20.41;25.80;101718.94;4285486;27;19939;-60
2024/04/23 09:53:30;;;;;;;;;;;;;;;20.41;26.42;101717.16;4290589;27;19993;-61
2024/04/23 09:55:32;;;;;;;;;;;;;;;20.42;26.05;101716.16;4301519;27;19948;-61
2024/04/23 09:57:35;;;;;;;;;;;;;;;20.42;25.31;101715.31;4286235;27;19956;-62
2024/04/23 09:59:37;;;;;;;;;;;;;;;20.43;25.07;101717.88;4304414;27;19943;-61
2024/04/23 10:01:42;;;;;;;;;;;;;;;20.42;26.00;101715.31;4288382;27;19940;-61
2024/04/23 10:03:44;;;;;;;;;;;;;;;20.43;25.41;101714.38;4289780;27;20352;-60
2024/04/23 10:05:50;;;;;;;;;;;;;;;20.42;25.76;101701.97;4302120;27;19937;-59
2024/04/23 10:08:08;;;;;;;;;;;;;;;20.42;25.67;101704.63;4257730;27;19993;-60
2024/04/23 10:10:12;;;;;;;;;;;;;;;20.41;25.04;101705.59;4305928;27;19939;-61
2024/04/23 10:12:25;;;;;;;;;;;;;;;20.41;25.49;101697.56;4286388;27;19936;-60
2024/04/23 10:14:27;;;;;;;;;;;;;;;20.40;25.81;101696.72;4295088;27;19936;-61
2024/04/23 10:16:33;;;;;;;;;;;;;;;20.39;25.15;101697.66;4297816;27;20375;-62
2024/04/23 10:18:50;;;;;;;;;;;;;;;20.39;25.11;101695.00;4286690;27;19940;-60
2024/04/23 10:20:52;;;;;;;;;;;;;;;20.39;25.38;101692.31;4300874;27;19939;-61
2024/04/23 10:22:54;;;;;;;;;;;;;;;20.42;25.65;101693.94;4286194;27;19944;-59
2024/04/23 10:24:57;;;;;;;;;;;;;;;20.41;25.75;101689.53;4296296;27;19936;-61
2024/04/23 10:27:00;;;;;;;;;;;;;;;20.44;25.91;101686.69;4295529;27;19940;-61
2024/04/23 10:29:02;;;;;;;;;;;;;;;20.46;25.13;101697.28;4287977;27;20272;-60
2024/04/23 10:31:04;;;;;;;;;;;;;;;20.46;25.98;101697.28;4298640;27;19953;-61
2024/04/23 10:33:07;;;;;;;;;;;;;;;20.42;25.78;101693.94;4286231;27;19940;-61
2024/04/23 10:35:10;;;;;;;;;;;;;;;20.39;25.06;101686.97;4294512;27;20303;-60
2024/04/23 10:37:14;;;;;;;;;;;;;;;20.40;25.02;101696.72;4268518;27;19941;-61